createdAt,value
2023-07-03T00:05:02.427Z,6.20
2023-07-03T00:15:02.398Z,6.00
2023-07-03T00:25:02.430Z,6.00
2023-07-03T00:35:02.366Z,6.00
2023-07-03T00:45:02.481Z,6.10
2023-07-03T00:55:02.441Z,5.30
2023-07-03T01:05:02.543Z,5.60
2023-07-03T01:15:02.424Z,4.90
2023-07-03T01:25:02.440Z,4.90
2023-07-03T01:35:02.439Z,4.80
2023-07-03T01:45:02.480Z,5.00
2023-07-03T01:55:02.480Z,5.00
2023-07-03T02:05:02.511Z,4.70
2023-07-03T02:15:02.564Z,4.90
2023-07-03T02:25:02.622Z,4.60
2023-07-03T02:35:02.671Z,4.70
2023-07-03T02:45:02.628Z,4.70
2023-07-03T02:55:02.635Z,4.80
2023-07-03T03:05:02.727Z,4.60
2023-07-03T03:15:02.679Z,4.40
2023-07-03T03:25:02.727Z,4.60
2023-07-03T03:35:02.702Z,4.70
2023-07-03T03:45:02.702Z,4.90
2023-07-03T03:55:02.721Z,5.60
2023-07-03T04:05:02.776Z,5.30
2023-07-03T04:15:02.758Z,5.50
2023-07-03T04:25:02.778Z,5.80
2023-07-03T04:35:02.793Z,5.70
2023-07-03T04:45:02.795Z,5.60
2023-07-03T04:55:02.822Z,6.00
2023-07-03T05:05:02.926Z,6.40
2023-07-03T05:15:02.821Z,6.50
2023-07-03T05:25:02.862Z,7.90
2023-07-03T05:35:02.852Z,8.70
2023-07-03T05:45:02.889Z,7.60
2023-07-03T05:55:02.964Z,7.30
2023-07-03T06:05:03.015Z,7.20
2023-07-03T06:15:02.919Z,6.90
2023-07-03T06:25:02.937Z,6.70
2023-07-03T06:35:06.412Z,6.30
2023-07-03T06:45:02.965Z,5.40
2023-07-03T06:55:02.995Z,4.90
2023-07-03T07:05:03.746Z,4.90
2023-07-03T07:15:02.977Z,4.90
2023-07-03T07:25:02.962Z,5.10
2023-07-03T07:35:02.995Z,4.70
2023-07-03T07:45:02.992Z,4.80
2023-07-03T07:55:02.970Z,4.30
2023-07-03T08:05:03.049Z,4.00
2023-07-03T08:15:03.080Z,4.10
2023-07-03T08:25:03.039Z,4.10
2023-07-03T08:45:03.071Z,4.10
2023-07-03T08:55:03.048Z,3.70
2023-07-03T09:05:03.204Z,4.20
2023-07-03T09:18:03.257Z,4.80
2023-07-03T09:31:04.834Z,4.60
2023-07-03T09:44:03.145Z,4.90
2023-07-03T09:57:03.166Z,5.20
2023-07-03T10:23:03.292Z,4.50
2023-07-03T10:36:03.360Z,5.10
2023-07-03T10:49:03.309Z,5.50
2023-07-03T11:02:03.341Z,5.20
2023-07-03T11:15:03.427Z,5.40
2023-07-03T11:28:03.465Z,4.60
2023-07-03T11:41:05.951Z,4.40
2023-07-03T11:54:03.506Z,4.10
2023-07-03T12:07:03.544Z,4.40
2023-07-03T12:20:03.622Z,4.00
2023-07-03T12:33:03.716Z,4.10
2023-07-03T12:46:03.649Z,4.00
2023-07-03T12:59:03.691Z,4.00
2023-07-03T13:12:03.756Z,3.80
2023-07-03T13:25:03.721Z,4.20
2023-07-03T13:38:03.757Z,4.50
2023-07-03T13:51:03.824Z,4.00
2023-07-03T14:04:03.838Z,4.50
2023-07-03T14:17:03.863Z,4.00
2023-07-03T14:30:03.892Z,4.40
2023-07-03T14:43:03.845Z,4.60
2023-07-03T14:56:04.178Z,4.30
2023-07-03T15:09:03.873Z,4.10
2023-07-03T15:22:03.897Z,4.00
2023-07-03T15:35:03.914Z,3.80
2023-07-03T15:48:04.066Z,3.80
2023-07-03T16:01:05.091Z,4.30
2023-07-03T16:14:04.017Z,3.90
2023-07-03T16:27:04.079Z,3.70
2023-07-03T16:40:04.124Z,3.50
2023-07-03T16:53:04.065Z,3.60
2023-07-03T17:06:04.098Z,3.40
2023-07-03T17:19:04.157Z,3.20
2023-07-03T17:32:04.219Z,3.50
2023-07-03T17:45:04.189Z,3.70
2023-07-03T17:58:04.194Z,3.40
2023-07-03T18:11:06.065Z,3.40
2023-07-03T18:24:04.272Z,3.50
2023-07-03T18:37:04.296Z,3.70
2023-07-03T18:50:04.347Z,3.70
2023-07-03T19:03:04.371Z,6.50
2023-07-03T19:16:04.359Z,4.20
2023-07-03T19:29:04.393Z,4.60
2023-07-03T19:42:04.398Z,4.40
2023-07-03T19:55:04.405Z,5.00
2023-07-03T20:08:04.459Z,4.70
2023-07-03T20:21:04.421Z,4.20
2023-07-03T20:34:04.475Z,4.50
2023-07-03T20:47:04.526Z,4.30
2023-07-03T21:00:04.535Z,4.00
2023-07-03T21:13:04.512Z,4.30
2023-07-03T21:26:04.524Z,4.00
2023-07-03T21:39:04.538Z,2.70
2023-07-03T21:52:04.533Z,2.40
2023-07-03T22:05:04.583Z,2.80
2023-07-03T22:18:04.571Z,2.90
2023-07-03T22:31:04.622Z,2.60
2023-07-03T22:44:04.630Z,2.20
2023-07-03T22:57:04.648Z,2.20
2023-07-03T23:10:04.643Z,2.20
2023-07-03T23:23:04.676Z,1.70
2023-07-03T23:36:04.742Z,1.70
2023-07-03T23:49:04.779Z,1.70
